createdAt,value
2022-08-05T05:27:44.137Z,4.25
2022-08-05T05:30:29.678Z,3.72
2022-08-05T05:33:03.550Z,3.88
2022-08-05T05:35:45.144Z,3.70
2022-08-05T05:38:14.385Z,3.88
2022-08-05T05:40:48.369Z,3.88
2022-08-05T05:43:27.838Z,3.70
2022-08-05T05:46:16.105Z,3.40
2022-08-05T05:48:48.033Z,3.97
2022-08-05T05:51:21.431Z,3.30
2022-08-05T05:53:57.311Z,3.65
2022-08-05T05:56:32.528Z,3.40
2022-08-05T05:59:03.219Z,3.40
2022-08-05T06:01:37.897Z,2.85
2022-08-05T06:04:11.647Z,3.00
2022-08-05T06:06:41.727Z,2.90
2022-08-05T06:09:17.585Z,3.38
2022-08-05T06:11:59.481Z,2.90
2022-08-05T06:14:30.582Z,3.25
2022-08-05T06:17:02.182Z,3.80
2022-08-05T06:19:56.542Z,4.38
2022-08-05T06:22:28.695Z,4.85
2022-08-05T06:24:57.010Z,5.63
2022-08-05T06:28:09.513Z,5.97
2022-08-05T06:30:17.673Z,4.85
2022-08-05T06:32:51.303Z,5.68
2022-08-05T06:36:03.108Z,5.97
2022-08-05T06:38:11.577Z,5.00
2022-08-05T06:40:42.354Z,5.07
2022-08-05T06:43:51.484Z,3.78
2022-08-05T06:46:04.075Z,3.58
2022-08-05T06:48:56.050Z,3.22
2022-08-05T06:51:29.998Z,3.03
2022-08-05T06:53:59.795Z,3.72
2022-08-05T06:56:28.196Z,2.88
2022-08-05T06:58:56.347Z,3.60
2022-08-05T07:01:27.696Z,3.13
2022-08-05T07:04:03.174Z,3.28
2022-08-05T07:06:31.979Z,3.33
2022-08-05T07:09:04.016Z,3.42
2022-08-05T07:11:37.259Z,3.30
2022-08-05T07:14:29.946Z,3.38
2022-08-05T07:18:02.278Z,2.92
2022-08-05T07:22:42.438Z,2.97
2022-08-05T07:25:54.378Z,3.20
2022-08-05T07:28:04.229Z,3.67
2022-08-05T07:30:38.753Z,2.83
2022-08-05T07:33:10.343Z,3.08
2022-08-05T07:36:03.569Z,2.85
2022-08-05T07:38:42.797Z,3.22
2022-08-05T07:42:07.355Z,3.22
2022-08-05T07:44:01.604Z,2.97
2022-08-05T07:46:32.063Z,3.78
2022-08-05T07:49:05.860Z,2.72
2022-08-05T07:51:41.143Z,2.80
2022-08-05T07:54:31.486Z,2.80
2022-08-05T07:57:23.666Z,2.90
2022-08-05T07:59:50.922Z,3.15
2022-08-05T08:02:19.079Z,2.72
2022-08-05T08:04:48.749Z,3.33
2022-08-05T08:07:22.367Z,3.20
2022-08-05T08:09:54.919Z,2.60
2022-08-05T08:12:37.082Z,2.75
2022-08-05T08:15:13.898Z,3.13
2022-08-05T08:17:52.796Z,2.70
2022-08-05T08:20:59.728Z,2.65
2022-08-05T08:23:59.875Z,3.05
2022-08-05T08:26:02.893Z,3.00
2022-08-05T08:28:36.155Z,2.42
2022-08-05T08:31:05.443Z,2.67
2022-08-05T08:33:36.158Z,2.55
2022-08-05T08:36:38.474Z,2.80
2022-08-05T08:38:57.091Z,3.40
2022-08-05T08:41:52.327Z,3.05
2022-08-05T08:45:22.940Z,2.65
2022-08-05T08:47:21.726Z,3.03
2022-08-05T08:50:22.760Z,2.88
2022-08-05T08:52:51.826Z,2.78
2022-08-05T08:56:02.421Z,2.97
2022-08-05T08:58:12.907Z,3.20
2022-08-05T09:00:43.499Z,2.85
2022-08-05T09:03:16.289Z,2.92
2022-08-05T09:06:07.941Z,2.80
2022-08-05T09:08:40.246Z,2.60
2022-08-05T09:11:13.663Z,2.72
2022-08-05T09:14:09.395Z,2.75
2022-08-05T09:16:31.476Z,2.53
2022-08-05T09:18:59.770Z,2.40
2022-08-05T09:22:22.258Z,2.45
2022-08-05T09:24:17.968Z,2.80
2022-08-05T09:26:52.648Z,2.60
2022-08-05T09:29:20.978Z,2.35
2022-08-05T09:32:51.879Z,1.90
2022-08-05T09:34:55.027Z,2.53
2022-08-05T09:38:17.603Z,2.17
2022-08-05T09:40:31.980Z,2.25
2022-08-05T09:43:08.549Z,2.38
2022-08-05T09:46:07.238Z,1.98
2022-08-05T09:48:29.518Z,2.40
2022-08-05T09:50:59.597Z,2.30
2022-08-05T09:53:54.772Z,2.60
2022-08-05T09:56:26.398Z,2.72
2022-08-05T09:59:00.684Z,2.78
2022-08-05T10:01:31.829Z,2.60
2022-08-05T10:04:03.663Z,2.42
2022-08-05T10:06:32.955Z,2.40
2022-08-05T10:09:28.262Z,2.10
2022-08-05T10:12:30.352Z,2.90
2022-08-05T10:15:16.278Z,2.47
2022-08-05T10:17:54.649Z,2.28
2022-08-05T10:20:26.531Z,2.53
2022-08-05T10:22:55.828Z,2.60
2022-08-05T10:25:26.575Z,2.50
2022-08-05T10:28:13.250Z,2.40
2022-08-05T10:32:52.140Z,2.70
2022-08-05T10:33:36.059Z,2.35
2022-08-05T10:36:05.899Z,2.90
2022-08-05T10:38:36.168Z,2.78
2022-08-05T10:41:14.078Z,3.00
2022-08-05T10:43:59.311Z,2.70
2022-08-05T10:46:45.298Z,2.95
2022-08-05T10:49:16.565Z,2.58
2022-08-05T10:51:48.635Z,2.90
2022-08-05T10:54:56.355Z,2.88
2022-08-05T10:57:30.960Z,2.92
2022-08-05T11:00:19.573Z,2.60
2022-08-05T11:03:23.438Z,2.63
2022-08-05T11:06:15.837Z,2.78
2022-08-05T11:09:31.877Z,2.25
2022-08-05T11:12:42.362Z,2.60
2022-08-05T11:15:22.238Z,1.88
2022-08-05T11:17:59.161Z,2.17
2022-08-05T11:20:43.823Z,1.98
2022-08-05T11:24:02.316Z,2.90
2022-08-05T11:26:28.420Z,2.22
2022-08-05T11:29:06.708Z,2.45
2022-08-05T11:31:58.580Z,3.00
2022-08-05T11:34:40.118Z,2.58
2022-08-05T11:38:29.891Z,2.47
2022-08-05T11:41:12.716Z,2.35
2022-08-05T11:44:04.404Z,2.33
2022-08-05T11:46:37.712Z,2.10
2022-08-05T11:49:07.915Z,2.40
2022-08-05T11:51:44.320Z,2.10
2022-08-05T11:54:34.034Z,2.30
2022-08-05T11:57:07.735Z,2.20
2022-08-05T11:59:50.017Z,2.13
2022-08-05T12:02:30.503Z,2.10
2022-08-05T12:05:08.098Z,2.30
2022-08-05T12:08:07.348Z,1.95
2022-08-05T12:10:45.490Z,1.80
2022-08-05T12:13:28.130Z,2.75
2022-08-05T12:16:14.786Z,3.20
2022-08-05T12:18:49.578Z,2.67
2022-08-05T12:21:23.873Z,2.03
2022-08-05T12:24:00.143Z,1.83
2022-08-05T12:26:37.486Z,1.65
2022-08-05T12:29:09.464Z,2.50
2022-08-05T12:31:45.910Z,2.38
2022-08-05T12:34:21.541Z,2.17
2022-08-05T12:36:53.330Z,2.20
2022-08-05T12:39:22.114Z,2.58
2022-08-05T12:41:58.012Z,2.17
2022-08-05T12:44:33.928Z,2.35
2022-08-05T12:47:03.656Z,2.10
2022-08-05T12:50:02.153Z,2.72
2022-08-05T12:52:37.754Z,2.05
2022-08-05T12:55:22.323Z,2.70
2022-08-05T12:58:52.425Z,2.08
2022-08-05T13:02:01.664Z,2.55
2022-08-05T13:03:41.537Z,2.30
2022-08-05T13:06:14.198Z,2.03
2022-08-05T13:08:52.353Z,2.67
2022-08-05T13:12:02.315Z,2.50
2022-08-05T13:14:19.252Z,1.95
2022-08-05T13:16:51.393Z,2.30
2022-08-05T13:19:23.009Z,2.17
2022-08-05T13:21:56.055Z,2.50
2022-08-05T13:24:36.330Z,2.20
2022-08-05T13:27:17.158Z,2.30
2022-08-05T13:30:34.511Z,2.55
2022-08-05T13:32:51.569Z,2.65
2022-08-05T13:35:22.095Z,2.33
2022-08-05T13:37:55.502Z,2.70
2022-08-05T13:40:36.903Z,2.35
2022-08-05T13:43:12.091Z,2.25
2022-08-05T13:45:43.280Z,2.15
2022-08-05T13:48:57.367Z,2.95
2022-08-05T13:51:07.069Z,2.30
2022-08-05T13:53:48.259Z,2.78
2022-08-05T13:56:18.790Z,2.65
2022-08-05T13:58:53.286Z,2.05
2022-08-05T14:01:27.500Z,2.38
2022-08-05T14:04:26.717Z,2.33
2022-08-05T14:06:58.799Z,2.50
2022-08-05T14:09:46.431Z,2.80
2022-08-05T14:12:17.705Z,2.00
2022-08-05T14:15:00.113Z,2.25
2022-08-05T14:17:28.554Z,2.47
2022-08-05T14:20:04.636Z,2.08
2022-08-05T14:22:36.338Z,2.47
2022-08-05T14:25:06.497Z,2.30
2022-08-05T14:27:48.472Z,2.13
2022-08-05T14:30:20.482Z,2.05
2022-08-05T14:32:49.484Z,2.50
2022-08-05T14:35:22.865Z,2.25
2022-08-05T14:37:55.412Z,2.97
2022-08-05T14:40:24.474Z,2.67
2022-08-05T14:42:52.651Z,2.60
2022-08-05T14:45:20.785Z,2.45
2022-08-05T14:48:02.798Z,2.45
2022-08-05T14:50:39.805Z,2.67
2022-08-05T14:53:08.975Z,2.80
2022-08-05T14:55:39.327Z,2.47
2022-08-05T14:58:10.924Z,2.83
2022-08-05T15:00:59.407Z,2.75
2022-08-05T15:03:33.674Z,2.35
2022-08-05T15:06:13.254Z,2.60
2022-08-05T15:08:59.777Z,3.35
2022-08-05T15:11:51.573Z,2.78
2022-08-05T15:14:34.426Z,2.63
2022-08-05T15:17:09.859Z,2.88
2022-08-05T15:19:48.873Z,2.63
2022-08-05T15:22:19.867Z,2.58
2022-08-05T15:24:49.391Z,2.55
2022-08-05T15:27:18.354Z,2.60
2022-08-05T15:29:47.946Z,2.58
2022-08-05T15:32:17.068Z,3.10
2022-08-05T15:34:45.166Z,2.67
2022-08-05T15:37:15.527Z,2.67
2022-08-05T15:41:04.792Z,2.70
2022-08-05T15:42:54.051Z,2.65
2022-08-05T15:45:38.227Z,2.60
2022-08-05T15:48:07.205Z,2.72
2022-08-05T15:50:35.918Z,2.90
2022-08-05T15:53:06.997Z,3.50
2022-08-05T15:56:03.716Z,2.58
2022-08-05T15:58:28.191Z,3.00
2022-08-05T16:01:04.335Z,2.88
2022-08-05T16:03:44.715Z,3.22
2022-08-05T16:06:20.231Z,2.90
2022-08-05T16:08:50.955Z,3.08
2022-08-05T16:11:42.404Z,3.10
2022-08-05T16:14:17.256Z,3.13
2022-08-05T16:16:46.388Z,3.35
2022-08-05T16:19:25.702Z,2.78
2022-08-05T16:22:03.666Z,2.95
2022-08-05T16:24:41.432Z,3.47
2022-08-05T16:27:46.773Z,2.97
2022-08-05T16:30:23.030Z,3.13
2022-08-05T16:32:54.052Z,3.50
2022-08-05T16:35:27.928Z,3.15
2022-08-05T16:38:16.013Z,3.25
2022-08-05T16:40:55.416Z,3.50
2022-08-05T16:43:26.395Z,3.17
2022-08-05T16:46:04.465Z,2.60
2022-08-05T16:48:36.768Z,3.10
2022-08-05T16:51:10.231Z,2.10
2022-08-05T16:54:03.853Z,2.45
2022-08-05T16:56:33.618Z,2.00
2022-08-05T16:59:08.448Z,2.08
2022-08-05T17:01:53.978Z,1.42
2022-08-05T17:04:26.357Z,1.60
2022-08-05T17:06:55.491Z,1.45
2022-08-05T17:09:23.618Z,1.30
2022-08-05T17:11:55.982Z,1.20
2022-08-05T17:14:34.275Z,1.10
2022-08-05T17:17:06.447Z,1.00
2022-08-05T17:19:37.433Z,1.55
2022-08-05T17:22:05.430Z,1.20
2022-08-05T17:24:39.111Z,1.10
2022-08-05T17:27:13.379Z,1.15
2022-08-05T17:29:47.151Z,1.00
2022-08-05T17:32:19.352Z,1.17
2022-08-05T17:34:48.533Z,1.02
2022-08-05T17:37:41.948Z,0.95
2022-08-05T17:40:12.215Z,1.02
2022-08-05T17:42:46.448Z,0.88
2022-08-05T17:45:22.165Z,1.00
2022-08-05T17:47:56.045Z,0.70
2022-08-05T17:50:28.375Z,0.70
2022-08-05T17:53:00.120Z,0.82
2022-08-05T17:55:37.336Z,0.57
2022-08-05T17:58:11.109Z,0.80
2022-08-05T18:00:44.935Z,0.90
2022-08-05T18:03:39.255Z,0.73
2022-08-05T18:06:11.189Z,0.90
2022-08-05T18:08:44.471Z,0.70
2022-08-05T18:11:24.579Z,0.80
2022-08-05T18:14:03.535Z,0.60
2022-08-05T18:16:33.736Z,0.85
2022-08-05T18:19:01.842Z,0.73
2022-08-05T18:22:07.166Z,0.90
2022-08-05T18:24:17.733Z,0.82
2022-08-05T18:26:45.672Z,0.90
2022-08-05T18:29:16.848Z,0.95
2022-08-05T18:31:46.319Z,0.85
2022-08-05T18:34:21.660Z,1.00
2022-08-05T18:36:49.932Z,0.68
2022-08-05T18:39:42.264Z,0.88
2022-08-05T18:42:10.830Z,1.00
2022-08-05T18:44:51.686Z,0.63
2022-08-05T18:47:26.694Z,0.90
2022-08-05T18:50:13.052Z,0.70
2022-08-05T18:52:50.931Z,1.05
2022-08-05T18:55:21.535Z,0.82
2022-08-05T18:57:53.422Z,0.75
2022-08-05T19:00:27.192Z,0.98
2022-08-05T19:03:03.688Z,0.70
2022-08-05T19:06:11.822Z,0.80
2022-08-05T19:08:22.121Z,0.80
2022-08-05T19:11:02.703Z,0.93
2022-08-05T19:13:35.913Z,1.20
2022-08-05T19:16:22.217Z,1.02
2022-08-05T19:18:56.692Z,0.73
2022-08-05T19:21:26.013Z,0.70
2022-08-05T19:24:05.687Z,0.93
2022-08-05T19:26:54.206Z,0.98
2022-08-05T19:29:24.127Z,0.80
2022-08-05T19:31:55.269Z,0.65
2022-08-05T19:34:26.973Z,0.80
2022-08-05T19:36:55.179Z,1.00
2022-08-05T19:39:23.314Z,0.80
2022-08-05T19:42:07.641Z,0.82
2022-08-05T19:44:44.951Z,0.98
2022-08-05T19:47:16.120Z,0.90
2022-08-05T19:49:48.069Z,0.75
2022-08-05T19:52:31.679Z,0.90
2022-08-05T19:55:07.310Z,0.70
2022-08-05T19:58:06.696Z,0.90
2022-08-05T20:00:38.192Z,1.02
2022-08-05T20:03:08.953Z,0.90
2022-08-05T20:05:49.818Z,0.90
2022-08-05T20:08:20.473Z,1.63
2022-08-05T20:10:53.650Z,1.00
2022-08-05T20:13:29.971Z,0.93
2022-08-05T20:16:11.106Z,1.10
2022-08-05T20:18:40.161Z,1.17
2022-08-05T20:21:09.876Z,0.80
2022-08-05T20:23:51.199Z,0.90
2022-08-05T20:26:23.288Z,0.80
2022-08-05T20:28:55.857Z,1.25
2022-08-05T20:31:28.563Z,1.05
2022-08-05T20:34:12.296Z,1.00
2022-08-05T20:36:43.147Z,1.10
2022-08-05T20:39:13.115Z,1.05
2022-08-05T20:41:44.222Z,1.20
2022-08-05T20:44:19.085Z,1.20
2022-08-05T20:46:57.944Z,1.45
2022-08-05T20:49:26.397Z,0.90
2022-08-05T20:51:57.446Z,1.13
2022-08-05T20:54:42.673Z,1.25
2022-08-05T20:57:24.814Z,1.20
2022-08-05T21:00:19.846Z,1.20
2022-08-05T21:02:55.447Z,1.17
2022-08-05T21:05:25.211Z,1.10
2022-08-05T21:07:58.258Z,1.20
2022-08-05T21:10:27.842Z,1.00
2022-08-05T21:13:09.020Z,1.50
2022-08-05T21:15:44.391Z,1.27
2022-08-05T21:18:14.168Z,1.40
2022-08-05T21:20:42.202Z,1.10
2022-08-05T21:23:12.896Z,1.42
2022-08-05T21:25:44.828Z,1.30
2022-08-05T21:28:13.094Z,1.20
2022-08-05T21:30:46.973Z,1.63
2022-08-05T21:33:22.606Z,1.55
2022-08-05T21:35:58.499Z,1.10
2022-08-05T21:38:29.059Z,1.33
2022-08-05T21:40:57.598Z,1.10
2022-08-05T21:43:26.175Z,1.40
2022-08-05T21:46:10.042Z,1.30
2022-08-05T21:48:40.030Z,1.25
2022-08-05T21:51:25.167Z,1.50
2022-08-05T21:54:03.602Z,1.65
2022-08-05T21:56:32.150Z,1.33
2022-08-05T21:59:01.307Z,1.40
2022-08-05T22:01:36.553Z,1.75
2022-08-05T22:04:04.997Z,1.67
2022-08-05T22:06:35.485Z,1.75
2022-08-05T22:09:13.562Z,2.03
2022-08-05T22:11:46.688Z,1.40
2022-08-05T22:14:32.981Z,1.45
2022-08-05T22:17:03.874Z,2.28
2022-08-05T22:20:00.303Z,1.70
2022-08-05T22:22:28.083Z,1.70
2022-08-05T22:25:18.194Z,1.35
2022-08-05T22:28:08.793Z,1.38
2022-08-05T22:30:44.031Z,1.70
2022-08-05T22:33:56.944Z,2.08
2022-08-05T22:36:15.313Z,1.45
2022-08-05T22:38:48.461Z,1.40
2022-08-05T22:42:04.480Z,1.50
2022-08-05T22:44:07.874Z,1.67
2022-08-05T22:46:39.714Z,1.50
2022-08-05T22:49:23.347Z,1.08
2022-08-05T22:52:05.414Z,1.10
2022-08-05T22:54:36.357Z,1.10
2022-08-05T22:57:06.348Z,1.58
2022-08-05T22:59:42.952Z,1.10
2022-08-05T23:02:17.255Z,0.90
2022-08-05T23:04:51.175Z,0.93
2022-08-05T23:07:21.909Z,0.93
2022-08-05T23:09:58.256Z,1.00
2022-08-05T23:12:32.431Z,1.00
2022-08-05T23:15:03.585Z,0.80
2022-08-05T23:17:37.561Z,0.70
2022-08-05T23:20:10.448Z,1.15
2022-08-05T23:22:47.189Z,0.75
2022-08-05T23:25:50.158Z,0.88
2022-08-05T23:28:07.729Z,0.93
2022-08-05T23:30:40.123Z,0.70
2022-08-05T23:33:16.036Z,0.60
2022-08-05T23:35:51.348Z,0.60
2022-08-05T23:38:19.709Z,1.10
2022-08-05T23:40:50.258Z,0.82
2022-08-05T23:43:25.408Z,0.75
2022-08-05T23:46:20.382Z,0.60
2022-08-05T23:49:01.023Z,0.70
2022-08-05T23:51:53.318Z,0.70
2022-08-05T23:54:25.829Z,0.73
2022-08-05T23:56:55.496Z,0.80
2022-08-05T23:59:37.310Z,0.60
